Weather observations for the past three days for
Pagosa Springs, Wolf Creek Pass
Imperial (Metric)
Date Time (mdt) Wind (mph) Vis. (mi.) Weather Sky Cond. Temperature (ºF) Relative Humidity Wind Chill (°F) Heat Index (°F) Pressure Precipitation (in)
Air Dwpt 6 hour altimeter (in) sea level (mb) 1 hr 3 hr 6 hr
Max. Min.
08 05:15 W 5 10.00 Mostly Cloudy BKN050 32 19.4 60% 28 30.34 0.0
08 04:55 W 5 10.00 Overcast OVC055 33.8 19.4 56% 30 30.35 0.0
08 04:35 NW 6 10.00 Mostly Cloudy BKN055 BKN120 32 19.4 60% 27 30.35 0.0
08 04:15 W 6 10.00 Overcast OVC055 32 19.4 60% 27 30.35 0.0
08 03:55 W 10 10.00 Overcast OVC065 32 19.4 60% 24 30.35 0.0
08 03:35 W 7 10.00 Overcast OVC065 32 19.4 60% 26 30.34 0.0
08 03:15 NW 8 10.00 Partly Cloudy SCT065 33.8 19.4 56% 28 30.35 0.0
08 02:55 W 3 10.00 Partly Cloudy SCT075 32 19.4 60% 30.36 0.0
08 02:35 Calm 10.00 Fair CLR 32 19.4 60% 30.37 0.0
08 02:15 NW 7 10.00 Fair CLR 33.8 17.6 51% 28 30.37 0.0
08 01:55 NW 6 10.00 Fair CLR 33.8 17.6 51% 29 30.36 0.0
08 01:35 N 6 10.00 Mostly Cloudy BKN090 33.8 17.6 51% 29 30.37 0.0
08 01:15 NW 6 10.00 Overcast SCT075 OVC090 33.8 17.6 51% 29 30.37 0.0
08 00:55 NW 7 10.00 Overcast OVC075 33.8 17.6 51% 28 30.37 0.0
08 00:35 NW 9 10.00 Overcast SCT060 BKN075 OVC085 33.8 19.4 56% 27 30.37 0.0
08 00:15 W 7 10.00 Overcast BKN060 OVC075 33.8 19.4 56% 28 30.37 0.0
07 23:55 NW 5 10.00 Overcast SCT060 OVC085 33.8 19.4 56% 30 30.37 0.0
07 23:35 NW 9 10.00 Overcast OVC085 33.8 19.4 56% 27 30.37 0.0
07 23:15 NW 9 10.00 Mostly Cloudy BKN085 33.8 17.6 51% 27 30.37 0.0
07 22:55 NW 5 10.00 Partly Cloudy SCT085 33.8 17.6 51% 30 30.37 0.0
07 22:35 NW 5 10.00 Fair CLR 33.8 17.6 51% 30 30.37 0.0
07 22:15 Calm 10.00 Fair CLR 33.8 15.8 48% 30.37 0.0
07 21:55 NW 3 10.00 Fair CLR 33.8 15.8 48% 30.37 0.0
07 21:35 NW 3 10.00 Fair CLR 33.8 17.6 51% 30.37 0.0
07 21:15 NW 5 10.00 Fair CLR 33.8 17.6 51% 30 30.37 0.0
07 20:55 NW 7 10.00 Fair CLR 35.6 17.6 48% 31 30.36 0.0
07 20:35 NW 6 10.00 Fair CLR 35.6 17.6 48% 31 30.35 0.0
07 20:15 NW 3 10.00 Partly Cloudy SCT055 SCT080 35.6 14 41% 30.36 0.0
07 19:55 W 7 10.00 Overcast SCT055 OVC080 35.6 14 41% 31 30.35 0.0
07 19:35 SW 6 10.00 Overcast SCT049 SCT055 OVC080 37.4 14 38% 33 30.34 0.0
07 19:15 W 6 10.00 Overcast SCT049 BKN070 OVC080 37.4 14 38% 33 30.34 0.0
07 18:55 W 7 10.00 Overcast SCT060 SCT070 OVC080 37.4 14 38% 33 30.34 0.0
07 18:35 SW 8 10.00 Mostly Cloudy SCT065 BKN080 37.4 17.6 45% 32 30.34 0.0
07 18:15 SW 12 G 16 10.00 Partly Cloudy SCT080 39.2 15.8 39% 33 30.34 0.0
07 17:55 W 9 G 18 10.00 Fair CLR 39.2 17.6 42% 34 30.34 0.0
07 17:35 W 8 10.00 Fair CLR 41 15.8 36% 36 30.34 0.0
07 17:15 SW 8 10.00 Fair CLR 41 15.8 36% 36 30.34 0.0
07 16:55 W 9 10.00 Fair CLR 41 17.6 39% 36 30.34 0.0
07 16:35 W 8 G 18 10.00 Fair CLR 41 17.6 39% 36 30.34 0.0
07 16:15 W 8 G 17 10.00 Fair CLR 39.2 17.6 42% 34 30.34 0.0
07 15:55 W 12 G 16 10.00 Fair CLR 39.2 17.6 42% 33 30.34 0.0
07 15:35 SW 10 G 17 10.00 Fair CLR 39.2 19.4 45% 33 30.35 0.0
07 15:15 W 9 G 20 10.00 Fair CLR 37.4 19.4 48% 31 30.35 0.0
07 14:55 W 14 G 18 10.00 Fair CLR 37.4 19.4 48% 30 30.35 0.0
07 14:35 W 15 G 20 10.00 Fair CLR 35.6 19.4 52% 27 30.36 0.0
07 14:15 W 14 G 18 10.00 Fair CLR 35.6 19.4 52% 27 30.37 0.0
07 13:55 W 9 G 18 10.00 Fair CLR 35.6 19.4 52% 29 30.37 0.0
07 13:35 W 10 10.00 Fair CLR 35.6 17.6 48% 29 30.37 0.0
07 13:15 SW 10 10.00 Fair CLR 35.6 15.8 44% 29 30.37 0.0
07 12:55 SW 8 10.00 Fair CLR 35.6 17.6 48% 30 30.37 0.0
07 12:35 SW 10 10.00 Fair CLR 35.6 17.6 48% 29 30.38 0.0
07 12:15 SW 10 10.00 Fair CLR 33.8 15.8 48% 26 30.37 0.0
07 11:55 SW 7 10.00 Fair CLR 37.4 14 38% 33 30.37 0.0
07 11:35 SW 5 10.00 Fair CLR 35.6 14 41% 32 30.38 0.0
07 11:15 SW 3 10.00 Fair CLR 33.8 14 44% 30.38 0.0
07 10:55 W 6 10.00 Fair CLR 33.8 12.2 41% 29 30.38 0.0
07 10:35 SW 5 10.00 Fair CLR 32 5 32% 28 30.38 0.0
07 10:15 W 5 10.00 Fair CLR 32 1.4 27% 28 30.39 0.0
07 09:55 W 7 10.00 Fair CLR 32 -2.2 23% 26 30.38 0.0
07 09:35 W 8 10.00 Fair CLR 30.2 -4 22% 23 30.37 0.0
07 09:15 SW 9 10.00 Fair CLR 30.2 -5.8 20% 23 30.37 0.0
07 08:55 SW 10 10.00 Fair CLR 30.2 -7.6 19% 22 30.37 0.0
07 08:35 W 10 10.00 Fair CLR 26.6 -5.8 24% 18 30.37 0.0
07 08:15 W 12 10.00 Fair CLR 24.8 -0.4 33% 15 30.37 0.0
07 07:55 W 12 10.00 Fair CLR 24.8 -4 28% 15 30.37 0.0
07 07:35 W 10 10.00 Fair CLR 23 -4 30% 13 30.37 0.0
07 07:15 SW 10 10.00 Fair CLR 24.8 -11.2 20% 15 30.36 0.0
07 06:55 SW 12 10.00 Fair CLR 23 -7.6 25% 13 30.35 0.0
07 06:35 W 12 10.00 Fair CLR 23 -7.6 25% 13 30.34 0.0
07 06:15 SW 8 10.00 Fair CLR 23 -14.8 18% 15 30.34 0.0
07 05:55 W 8 10.00 Fair CLR 24.8 -16.6 15% 17 30.34 0.0
07 05:35 W 8 10.00 Fair CLR 24.8 -14.8 16% 17 30.34 0.0
07 05:15 SW 7 10.00 Fair CLR 24.8 -13 18% 18 30.34 0.0
07 04:55 SW 3 10.00 Fair CLR 26.6 -18.4 13% 30.34 0.0
07 04:35 NW 3 10.00 Fair CLR 26.6 -18.4 13% 30.34 0.0
07 04:15 NW 5 10.00 Fair CLR 26.6 -16.6 14% 22 30.34 0.0
07 03:55 N 3 10.00 Partly Cloudy SCT110 24.8 -11.2 20% 30.34 0.0
07 03:35 NW 6 10.00 Partly Cloudy SCT110 24.8 -7.6 23% 19 30.34 0.0
07 03:15 Calm 10.00 Fair CLR 23 -5.8 28% 30.34 0.0
07 02:55 NW 6 10.00 Fair CLR 23 -4 30% 17 30.33 0.0
07 02:35 N 5 10.00 Fair CLR 21.2 -0.4 38% 16 30.34 0.0
07 02:15 Calm 10.00 Fair CLR 19.4 5 53% 30.33 0.0
07 01:55 NE 3 10.00 Fair CLR 19.4 5 53% 30.33 0.0
07 01:35 NE 6 10.00 Fair CLR 19.4 5 53% 12 30.33 0.0
07 01:15 N 12 10.00 Fair CLR 19.4 5 53% 8 30.33 0.0
07 00:55 N 9 10.00 Fair CLR 19.4 6.8 58% 10 30.33 0.0
07 00:35 NE 10 10.00 Fair CLR 19.4 8.6 63% 9 30.33 0.0
07 00:15 NE 7 10.00 Fair CLR 19.4 8.6 63% 11 30.32 0.0
06 23:55 NE 8 10.00 Fair CLR 19.4 8.6 63% 10 30.31 0.0
06 23:35 N 8 G 17 10.00 Fair CLR 19.4 6.8 58% 10 30.3 0.0
06 23:15 N 10 G 16 10.00 Fair CLR 19.4 6.8 58% 9 30.3 0.0
06 22:55 N 7 10.00 Fair CLR 19.4 8.6 63% 11 30.3 0.0
06 22:35 N 10 10.00 Fair CLR 19.4 8.6 63% 9 30.3 0.0
06 22:15 N 10 10.00 Fair CLR 19.4 8.6 63% 9 30.3 0.0
06 21:55 N 8 10.00 Fair CLR 19.4 8.6 63% 10 30.29 0.0
06 21:35 N 7 10.00 Fair CLR 21.2 8.6 58% 13 30.29 0.0
06 21:15 N 6 10.00 Fair CLR 21.2 10.4 63% 14 30.28 0.0
06 20:55 NE 6 10.00 Fair CLR 21.2 8.6 58% 14 30.27 0.0
06 20:35 N 6 10.00 Fair CLR 21.2 8.6 58% 14 30.26 0.0
06 20:15 N 6 10.00 Fair CLR 23 10.4 58% 17 30.25 0.0
06 19:55 N 5 10.00 Fair CLR 24.8 10.4 54% 20 30.25 0.0
06 19:35 NW 7 10.00 Fair CLR 26.6 10.4 50% 20 30.23 0.0
06 19:15 NW 7 10.00 Fair CLR 26.6 10.4 50% 20 30.23 0.0
06 18:55 N 7 10.00 Fair CLR 26.6 10.4 50% 20 30.21 0.0
06 18:35 NW 7 10.00 Fair CLR 28.4 10.4 47% 22 30.21 0.0
06 18:15 Calm 10.00 Fair CLR 28.4 8.6 43% 30.2 0.0
06 17:55 NW 8 10.00 Fair CLR 28.4 8.6 43% 21 30.19 0.0
06 17:35 NW 9 10.00 Fair CLR 28.4 10.4 47% 20 30.18 0.0
06 17:15 NW 7 G 16 10.00 Fair CLR 28.4 10.4 47% 22 30.17 0.0
06 16:55 NW 6 10.00 Partly Cloudy SCT048 SCT055 30.2 10.4 43% 25 30.16 0.0
06 16:35 NW 5 10.00 Mostly Cloudy SCT032 SCT042 BKN055 28.4 12.2 51% 24 30.15 0.0
06 16:15 NW 5 10.00 Mostly Cloudy SCT003 SCT033 BKN055 28.4 23 80% 24 30.14 0.0
06 15:55 W 6 10.00 Overcast SCT003 SCT024 OVC050 24.8 24.8 100% 19 30.14 0.0
06 15:35 W 8 0.50 Overcast OVC001 26.6 26.6 100% 19 30.14 0.0
06 15:15 W 7 10.00 Partly Cloudy SCT020 SCT028 SCT041 26.6 26.6 100% 20 30.13 0.0
06 14:55 NW 5 10.00 Overcast SCT015 BKN031 OVC042 24.8 24.8 100% 20 30.13 0.0
06 14:35 NW 7 10.00 Overcast SCT026 BKN035 OVC075 0 0 0% 30.12 0.0
06 14:15 Calm 0.00 NULL NULL 23 23 100% 30.12 0.0
06 13:55 Calm 0.00 NULL NULL 21.2 21.2 100% 30.11 0.0 0.01
06 13:35 NW 9 0.00 Thunderstorm BKN001 BKN009 OVC014 0 0 0% 30.09 0.0
06 13:15 Calm 0.00 Overcast OVC001 19.4 19.4 100% 30.09 0.0
06 12:55 NW 13 G 20 0.00 Overcast OVC001 0 0 0% 30.09 0.0 0.02
06 12:35 NW 15 G 18 0.00 Overcast OVC001 0 0 0% 30.1 0.0 0.02
06 12:15 W 8 G 20 0.00 Overcast OVC001 0 0 0% 30.1 0.0 0.01
06 11:55 Calm 0.00 Overcast OVC001 0 0 0% 30.08 0.0 0.08
06 11:35 SW 17 0.00 Overcast OVC001 0 0 0% 30.07 0.0 0.05
06 11:15 SW 16 G 24 0.00 Thunderstorm in Vicinity OVC001 0 0 0% 30.07 0.0 0.01
06 10:55 Calm 0.00 Overcast OVC001 0 0 0% 30.06 0.0 0.06
06 10:35 SW 18 0.00 Overcast OVC001 0 0 0% 30.05 0.0 0.04
06 10:15 SW 17 G 32 0.00 Overcast OVC001 0 0 0% 30.06 0.0 0.01
06 09:55 SW 21 0.00 Overcast and Breezy OVC001 0 0 0% 30.05 0.0 0.03
06 09:35 W 13 G 30 0.00 Overcast OVC001 0 0 0% 30.06 0.0 0.03
06 09:15 SW 18 0.00 Overcast OVC001 0 0 0% 30.04 0.0 0.01
06 08:55 Calm 0.00 Overcast OVC001 0 0 0% 30.04 0.0 0.02
06 08:35 Calm 0.00 Overcast OVC001 0 0 0% 30.04 0.0 0.02
06 08:15 Calm 0.00 Overcast OVC001 23 23 100% 30.04 0.0 0.01
06 07:55 Calm 0.00 Overcast OVC001 23 23 100% 30.04 0.0 0.02
06 07:35 SW 18 G 29 0.00 Overcast OVC001 23 23 100% 10 30.04 0.0 0.02
06 07:15 Calm 0.00 Overcast OVC001 23 23 100% 30.04 0.0
06 06:55 Calm 0.00 Overcast OVC001 23 23 100% 30.04 0.0 0.01
06 06:35 Calm 0.00 Overcast OVC001 23 23 100% 30.02 0.0 0.01
06 06:15 SW 18 G 28 0.00 Overcast OVC001 23 23 100% 10 30.02 0.0
06 05:55 SW 22 G 29 0.00 Overcast and Breezy OVC001 23 23 100% 9 30.02 0.0 0.02
06 05:35 SW 17 G 24 0.00 Overcast OVC001 23 23 100% 10 30.02 0.0 0.02
06 05:15 Calm 0.00 Overcast OVC001 23 23 100% 30.02 0.0 0.01
06 04:55 W 15 G 29 0.00 Overcast OVC001 23 23 100% 11 30.02 0.0 0.01
06 04:35 SW 16 0.75 Overcast OVC001 23 23 100% 11 30.01 0.0 0.01
06 04:15 W 17 0.50 Overcast OVC001 23 23 100% 10 30.02 0.0
06 03:55 SW 17 G 24 0.50 Overcast OVC001 23 23 100% 10 30.02 0.0 0.01
06 03:35 W 15 G 25 0.50 Overcast OVC001 23 23 100% 11 30.02 0.0 0.01
06 03:15 SW 17 0.25 Overcast OVC001 21.2 21.2 100% 8 30.02 0.0 0.01
06 02:55 SW 14 G 18 0.50 Overcast OVC003 21.2 21.2 100% 9 30.03 0.0 0.05
06 02:35 Calm 4.00 Overcast BKN001 BKN007 OVC041 21.2 21.2 100% 30.04 0.0 0.03
06 02:15 Calm 0.50 Overcast OVC001 23 23 100% 30.04 0.0
06 01:55 SW 13 0.50 Overcast OVC001 23 23 100% 12 30.04 0.0 0.02
06 01:35 Calm 0.50 Overcast OVC001 23 23 100% 30.05 0.0 0.01
06 01:15 SW 13 0.75 Overcast OVC001 23 23 100% 12 30.06 0.0
06 00:55 SW 12 G 18 0.75 Overcast OVC001 23 23 100% 13 30.06 0.0 0.03
06 00:35 W 10 G 17 0.50 Overcast OVC001 23 23 100% 13 30.07 0.0 0.03
06 00:15 SW 15 0.50 Overcast OVC001 24.8 24.8 100% 13 30.06 0.0 0.01
05 23:55 SW 18 0.25 Overcast OVC001 23 23 100% 10 30.06 0.0 0.09
05 23:35 Calm 0.50 Overcast OVC001 23 23 100% 30.05 0.0 0.04
05 23:15 Calm 0.75 Overcast OVC001 23 23 100% 30.07 0.0 0.01
05 22:55 W 18 G 26 0.25 Overcast OVC001 24.8 24.8 100% 12 30.06 0.0 0.04
05 22:35 SW 8 G 22 0.75 Overcast OVC001 24.8 24.8 100% 17 30.06 0.0 0.04
05 22:15 Calm 0.25 Overcast OVC001 24.8 24.8 100% 30.05 0.0 0.04
05 21:55 Calm 0.50 Overcast OVC001 24.8 24.8 100% 30.04 0.0 0.04
05 21:35 Calm 0.25 Overcast OVC001 24.8 24.8 100% 30.04 0.0 0.02
05 21:15 Calm 0.75 Overcast OVC001 24.8 24.8 100% 30.04 0.0
05 20:55 SW 15 G 25 0.25 Overcast OVC001 26.6 26.6 100% 16 30.05 0.0 0.01
05 20:35 W 12 G 28 0.25 Overcast OVC001 26.6 26.6 100% 17 30.04 0.0 0.01
05 20:15 W 9 G 16 0.25 Thunderstorm OVC001 26.6 26.6 100% 18 30.03 0.0 0.01
05 19:55 SW 13 G 20 0.15 Thunderstorm OVC001 26.6 26.6 100% 16 30.02 0.0 0.02
05 19:35 W 12 G 22 0.50 Thunderstorm BKN003 OVC006 26.6 26.6 100% 17 30.01 0.0
05 19:15 SW 9 G 23 1.25 Thunderstorm in Vicinity SCT007 OVC017 28.4 24.8 86% 20 30 0.0
05 18:55 S 15 G 25 7.00 Overcast BKN022 OVC028 30.2 23 75% 20 30 0.0
05 18:35 SW 22 G 36 3.00 Overcast and Breezy SCT017 BKN024 OVC034 30.2 23 75% 18 30 0.0
05 18:15 SW 20 G 38 5.00 Thunderstorm in Vicinity SCT021 SCT027 OVC033 30.2 21.2 69% 19 29.99 0.0
05 17:55 SW 20 G 30 10.00 Overcast SCT031 BKN039 OVC047 32 19.4 60% 21 29.99 0.0
05 17:35 SW 21 G 31 10.00 Overcast and Breezy BKN040 BKN050 OVC060 32 19.4 60% 21 29.99 0.0
05 17:15 SW 16 G 29 10.00 Overcast BKN041 OVC049 32 17.6 55% 22 29.99 0.0
05 16:55 SW 21 G 26 10.00 Overcast and Breezy SCT028 BKN041 OVC049 32 19.4 60% 21 30 0.0
05 16:35 SW 22 G 33 10.00 Overcast and Breezy SCT026 BKN032 OVC046 32 19.4 60% 20 30 0.0
05 16:15 SW 23 G 35 10.00 Overcast and Breezy SCT029 BKN033 OVC047 32 19.4 60% 20 30 0.0
05 15:55 SW 20 G 31 10.00 Overcast SCT012 BKN031 OVC047 32 21.2 64% 21 30.02 0.0
05 15:35 SW 15 G 30 1.75 Overcast BKN014 BKN021 OVC026 30.2 21.2 69% 20 30.03 0.0
05 15:15 SW 23 G 38 4.00 Overcast and Breezy SCT016 SCT024 OVC032 32 19.4 60% 20 30.02 0.0
05 14:55 SW 26 G 38 7.00 Overcast and Windy SCT019 SCT024 OVC032 32 19.4 60% 19 30.02 0.0
05 14:35 SW 21 G 30 10.00 Overcast and Breezy BKN032 OVC040 32 19.4 60% 21 30.04 0.0
05 14:15 SW 25 G 38 10.00 Mostly Cloudy and Breezy SCT036 BKN042 BKN049 32 19.4 60% 19 30.04 0.0
05 13:55 SW 24 G 38 10.00 Partly Cloudy and Breezy SCT036 33.8 19.4 56% 22 30.03 0.0
05 13:35 SW 21 G 36 10.00 Partly Cloudy and Breezy SCT036 32 19.4 60% 21 30.04 0.0
05 13:15 SW 23 G 37 10.00 Partly Cloudy and Breezy SCT060 SCT075 32 19.4 60% 20 30.04 0.0
05 12:55 SW 23 G 37 10.00 Overcast and Breezy SCT050 BKN075 OVC085 32 19.4 60% 20 30.04 0.0
05 12:35 SW 30 G 38 10.00 Mostly Cloudy and Windy BKN075 32 17.6 55% 18 30.04 0.0
05 12:15 SW 23 G 31 10.00 Mostly Cloudy and Breezy BKN075 BKN090 32 17.6 55% 20 30.04 0.0
05 11:55 SW 21 G 31 10.00 Overcast and Breezy SCT047 BKN065 OVC090 30.2 19.4 64% 18 30.04 0.0
05 11:35 SW 28 G 38 10.00 Overcast and Windy BKN075 OVC100 28.4 19.4 69% 14 30.04 0.0
05 11:15 SW 23 G 36 10.00 Partly Cloudy and Breezy SCT065 SCT085 SCT100 30.2 19.4 64% 18 30.04 0.0
05 10:55 SW 21 G 30 10.00 Mostly Cloudy and Breezy SCT065 BKN095 30.2 19.4 64% 18 30.04 0.0
05 10:35 SW 22 G 29 10.00 Mostly Cloudy and Breezy SCT065 SCT070 BKN100 28.4 17.6 64% 16 30.06 0.0
05 10:15 SW 17 G 25 10.00 Overcast SCT065 BKN075 OVC095 30.2 17.6 59% 19 30.06 0.0
05 09:55 SW 13 G 22 10.00 Overcast OVC065 26.6 17.6 69% 16 30.07 0.0
05 09:35 SW 14 G 17 10.00 Overcast SCT055 OVC070 26.6 17.6 69% 16 30.07 0.0
05 09:15 SW 13 10.00 Overcast SCT055 OVC070 26.6 17.6 69% 16 30.07 0.0
05 08:55 SW 10 10.00 Overcast OVC055 24.8 17.6 74% 15 30.09 0.0
05 08:35 SW 14 G 17 10.00 Overcast SCT055 BKN075 OVC100 24.8 17.6 74% 14 30.09 0.0
05 08:15 SW 14 G 17 10.00 Overcast SCT100 OVC120 26.6 15.8 64% 16 30.09 0.0
05 07:55 SW 12 10.00 Partly Cloudy SCT085 SCT120 24.8 15.8 69% 15 30.1 0.0
05 07:35 SW 9 10.00 Fair CLR 23 14 68% 14 30.1 0.0
05 07:15 SW 13 G 20 10.00 Fair CLR 24.8 14 63% 14 30.09 0.0
05 06:55 SW 14 G 18 10.00 Fair CLR 23 14 68% 11 30.09 0.0
05 06:35 SW 15 G 25 10.00 Fair CLR 23 14 68% 11 30.09 0.0
05 06:15 SW 15 G 20 10.00 Fair CLR 24.8 14 63% 13 30.09 0.0
05 05:55 SW 13 10.00 Fair CLR 24.8 14 63% 14 30.09 0.0
Date Time (mdt) Wind (mph) Vis. (mi.) Weather Sky Cond. Air Dwpt Max. Min. Relative Humidity Wind Chill (°F) Heat Index (°F) altimeter (in) sea level (mb) 1 hr 3 hr 6 hr
6 hour
Temperature (ºF) Pressure Precipitation (in)